METAR Data
IDs: Format: Raw Decoded Include TAF

Data at: 2016 UTC 18 Apr 2021

LIML 181950Z 08005KT 9999 SCT100 11/05 Q1017 NOSIG